createdAt,value
2018-02-07T00:03:09.686Z,20.73
2018-02-07T00:06:17.695Z,18.27
2018-02-07T00:09:23.514Z,18.80
2018-02-07T00:12:28.827Z,19.50
2018-02-07T00:15:34.214Z,19.53
2018-02-07T00:18:39.859Z,19.03
2018-02-07T00:21:44.946Z,18.60
2018-02-07T00:24:50.367Z,18.67
2018-02-07T00:27:55.195Z,17.80
2018-02-07T00:31:00.606Z,16.67
2018-02-07T00:34:06.103Z,17.20
2018-02-07T00:37:11.378Z,17.27
2018-02-07T00:40:17.726Z,17.20
2018-02-07T00:43:27.138Z,16.77
2018-02-07T00:46:32.722Z,19.17
2018-02-07T00:49:38.894Z,18.10
2018-02-07T00:52:43.961Z,18.43
2018-02-07T00:55:49.993Z,18.43
2018-02-07T00:58:55.999Z,18.83
2018-02-07T01:02:01.645Z,19.70
2018-02-07T01:05:07.811Z,17.50
2018-02-07T01:08:13.458Z,17.17
2018-02-07T01:11:21.062Z,17.20
2018-02-07T01:14:26.050Z,18.57
2018-02-07T01:17:31.458Z,18.10
2018-02-07T01:20:37.398Z,18.97
2018-02-07T01:23:42.363Z,19.57
2018-02-07T01:26:47.599Z,17.17
2018-02-07T01:29:55.466Z,20.63
2018-02-07T01:33:00.582Z,17.70
2018-02-07T01:36:05.710Z,17.73
2018-02-07T01:39:10.563Z,17.40
2018-02-07T01:42:17.547Z,17.13
2018-02-07T01:45:22.665Z,18.40
2018-02-07T01:48:28.155Z,18.73
2018-02-07T01:51:33.266Z,18.50
2018-02-07T01:54:38.547Z,19.50
2018-02-07T01:57:44.800Z,18.97
2018-02-07T02:00:50.675Z,17.67
2018-02-07T02:03:56.146Z,19.20
2018-02-07T02:07:01.539Z,17.43
2018-02-07T02:10:09.692Z,19.47
2018-02-07T02:13:15.382Z,18.43
2018-02-07T02:16:20.279Z,16.03
2018-02-07T02:19:26.939Z,17.30
2018-02-07T02:22:38.731Z,18.90
2018-02-07T02:25:46.114Z,20.27
2018-02-07T02:28:51.194Z,17.93
2018-02-07T02:31:56.441Z,19.53
2018-02-07T02:35:03.580Z,18.10
2018-02-07T02:38:08.652Z,19.63
2018-02-07T02:41:27.079Z,17.00
2018-02-07T02:44:32.179Z,18.23
2018-02-07T02:47:45.829Z,19.40
2018-02-07T02:50:51.123Z,19.10
2018-02-07T02:53:57.574Z,17.80
2018-02-07T02:57:03.289Z,18.47
2018-02-07T03:00:09.590Z,17.30
2018-02-07T03:03:15.335Z,17.87
2018-02-07T03:06:21.570Z,17.57
2018-02-07T03:09:27.930Z,17.70
2018-02-07T03:12:33.646Z,17.83
2018-02-07T03:15:38.636Z,17.77
2018-02-07T03:18:53.229Z,16.87
2018-02-07T03:21:58.662Z,19.37
2018-02-07T03:25:08.291Z,18.30
2018-02-07T03:28:14.366Z,18.03
2018-02-07T03:31:19.582Z,17.63
2018-02-07T03:34:25.249Z,19.10
2018-02-07T03:37:30.555Z,18.87
2018-02-07T03:40:35.790Z,19.43
2018-02-07T03:43:40.706Z,18.00
2018-02-07T03:46:54.299Z,20.80
2018-02-07T03:50:00.092Z,17.53
2018-02-07T03:53:06.702Z,18.03
2018-02-07T03:56:23.922Z,18.60
2018-02-07T03:59:29.711Z,18.53
2018-02-07T04:02:35.955Z,18.67
2018-02-07T04:05:41.890Z,20.60
2018-02-07T04:08:47.410Z,18.80
2018-02-07T04:11:53.716Z,19.30
2018-02-07T04:14:58.674Z,19.60
2018-02-07T04:18:08.265Z,19.17
2018-02-07T04:21:14.250Z,17.50
2018-02-07T04:24:19.904Z,18.90
2018-02-07T04:27:24.914Z,17.80
2018-02-07T04:30:31.387Z,17.50
2018-02-07T04:33:36.847Z,18.27
2018-02-07T04:36:42.959Z,16.87
2018-02-07T04:39:48.231Z,20.27
2018-02-07T04:42:53.448Z,18.40
2018-02-07T04:45:59.186Z,19.17
2018-02-07T04:49:13.643Z,20.13
2018-02-07T04:52:20.197Z,20.90
2018-02-07T04:55:25.484Z,21.77
2018-02-07T04:58:39.054Z,19.30
2018-02-07T05:01:44.547Z,18.87
2018-02-07T05:05:06.838Z,19.70
2018-02-07T05:08:11.906Z,18.80
2018-02-07T05:11:17.418Z,19.17
2018-02-07T05:14:27.122Z,19.73
2018-02-07T05:17:32.558Z,20.70
2018-02-07T05:20:37.764Z,20.30
2018-02-07T05:23:43.175Z,19.70
2018-02-07T05:26:51.999Z,20.33
2018-02-07T05:30:01.699Z,20.90
2018-02-07T05:33:13.527Z,20.90
2018-02-07T05:36:18.386Z,21.03
2018-02-07T05:39:24.979Z,20.63
2018-02-07T05:42:35.902Z,19.87
2018-02-07T05:45:41.346Z,20.40
2018-02-07T05:48:47.564Z,19.17
2018-02-07T05:51:53.266Z,21.30
2018-02-07T05:54:58.731Z,20.20
2018-02-07T05:58:04.198Z,18.98
2018-02-07T06:01:09.367Z,19.90
2018-02-07T06:04:15.877Z,20.90
2018-02-07T06:07:21.546Z,20.67
2018-02-07T06:10:26.522Z,20.77
2018-02-07T06:13:32.379Z,20.10
2018-02-07T06:16:38.983Z,22.92
2018-02-07T06:19:45.329Z,21.33
2018-02-07T06:22:50.562Z,20.52
2018-02-07T06:25:56.183Z,20.80
2018-02-07T06:29:01.869Z,19.87
2018-02-07T06:32:08.161Z,21.33
2018-02-07T06:35:13.655Z,20.17
2018-02-07T06:38:19.399Z,20.57
2018-02-07T06:41:25.031Z,23.80
2018-02-07T06:44:30.278Z,21.37
2018-02-07T06:47:35.622Z,21.33
2018-02-07T06:50:40.638Z,21.42
2018-02-07T06:53:46.410Z,21.98
2018-02-07T06:56:51.958Z,22.20
2018-02-07T06:59:57.218Z,20.85
2018-02-07T07:03:02.763Z,22.23
2018-02-07T07:06:07.719Z,20.98
2018-02-07T07:09:13.207Z,21.67
2018-02-07T07:12:18.434Z,21.30
2018-02-07T07:15:23.759Z,23.33
2018-02-07T07:18:28.734Z,22.30
2018-02-07T07:21:34.402Z,21.50
2018-02-07T07:24:39.258Z,23.13
2018-02-07T07:27:44.643Z,20.87
2018-02-07T07:30:50.435Z,20.80
2018-02-07T07:33:56.320Z,20.20
2018-02-07T07:37:01.984Z,20.77
2018-02-07T07:40:07.458Z,22.80
2018-02-07T07:43:12.863Z,20.45
2018-02-07T07:46:17.870Z,23.25
2018-02-07T07:49:23.315Z,21.10
2018-02-07T07:52:29.199Z,22.53
2018-02-07T07:55:34.726Z,22.33
2018-02-07T07:58:39.955Z,19.60
2018-02-07T08:01:46.222Z,20.33
2018-02-07T08:04:51.416Z,23.17
2018-02-07T08:07:57.688Z,22.07
2018-02-07T08:11:03.207Z,21.63
2018-02-07T08:14:09.158Z,21.57
2018-02-07T08:17:15.426Z,21.20
2018-02-07T08:20:20.394Z,21.30
2018-02-07T08:23:25.815Z,21.60
2018-02-07T08:26:31.199Z,21.73
2018-02-07T08:29:37.574Z,20.80
2018-02-07T08:32:43.698Z,20.50
2018-02-07T08:35:49.251Z,23.00
2018-02-07T08:38:54.873Z,20.83
2018-02-07T08:41:59.934Z,20.27
2018-02-07T08:45:06.134Z,21.00
2018-02-07T08:48:11.090Z,21.57
2018-02-07T08:51:16.450Z,20.97
2018-02-07T08:54:22.290Z,22.90
2018-02-07T08:57:27.302Z,21.83
2018-02-07T09:00:32.910Z,21.77
2018-02-07T09:03:38.381Z,22.63
2018-02-07T09:06:44.056Z,24.53
2018-02-07T09:09:48.941Z,21.67
2018-02-07T09:12:54.813Z,23.00
2018-02-07T09:16:00.790Z,20.93
2018-02-07T09:19:05.682Z,24.47
2018-02-07T09:22:10.752Z,21.70
2018-02-07T09:25:16.349Z,23.17
2018-02-07T09:28:21.906Z,23.23
2018-02-07T09:31:27.546Z,23.63
2018-02-07T09:34:32.550Z,22.10
2018-02-07T09:37:38.008Z,24.00
2018-02-07T09:40:44.650Z,24.87
2018-02-07T09:43:50.563Z,22.50
2018-02-07T09:46:56.607Z,23.17
2018-02-07T09:50:02.866Z,22.17
2018-02-07T09:53:07.834Z,22.07
2018-02-07T09:56:13.346Z,24.33
2018-02-07T09:59:19.562Z,23.20
2018-02-07T10:02:24.726Z,21.33
2018-02-07T10:05:29.822Z,23.40
2018-02-07T10:08:34.745Z,22.00
2018-02-07T10:11:40.575Z,25.10
2018-02-07T10:14:46.945Z,22.53
2018-02-07T10:17:52.111Z,23.20
2018-02-07T10:20:58.380Z,22.50
2018-02-07T10:24:04.335Z,24.03
2018-02-07T10:27:09.263Z,24.03
2018-02-07T10:30:14.659Z,23.13
2018-02-07T10:33:20.043Z,24.73
2018-02-07T10:36:25.682Z,23.80
2018-02-07T10:39:31.972Z,22.40
2018-02-07T10:42:37.406Z,22.23
2018-02-07T10:45:42.866Z,24.60
2018-02-07T10:48:47.837Z,22.40
2018-02-07T10:51:52.721Z,22.03
2018-02-07T10:54:57.979Z,24.67
2018-02-07T10:58:03.990Z,25.23
2018-02-07T11:01:09.187Z,24.30
2018-02-07T11:04:14.626Z,23.73
2018-02-07T11:07:19.830Z,23.00
2018-02-07T11:10:26.324Z,20.17
2018-02-07T11:13:32.162Z,23.93
2018-02-07T11:16:37.374Z,24.70
2018-02-07T11:19:42.794Z,24.33
2018-02-07T11:22:48.016Z,23.53
2018-02-07T11:25:53.227Z,22.87
2018-02-07T11:28:58.131Z,23.20
2018-02-07T11:32:03.280Z,25.47
2018-02-07T11:35:08.712Z,24.50
2018-02-07T11:38:14.783Z,25.30
2018-02-07T11:41:20.298Z,24.63
2018-02-07T11:44:25.231Z,24.13
2018-02-07T11:47:31.013Z,24.70
2018-02-07T11:50:36.958Z,23.90
2018-02-07T11:53:42.454Z,22.90
2018-02-07T11:56:48.487Z,23.33
2018-02-07T11:59:53.625Z,24.50
2018-02-07T12:02:58.951Z,23.20
2018-02-07T12:06:03.888Z,22.43
2018-02-07T12:09:09.384Z,23.50
2018-02-07T12:12:14.563Z,22.57
2018-02-07T12:15:20.402Z,23.50
2018-02-07T12:18:25.763Z,25.40
2018-02-07T12:21:31.105Z,23.17
2018-02-07T12:24:36.952Z,23.20
2018-02-07T12:27:42.031Z,24.10
2018-02-07T12:30:47.411Z,25.83
2018-02-07T12:33:53.319Z,24.20
2018-02-07T12:36:58.975Z,23.07
2018-02-07T12:40:04.567Z,23.80
2018-02-07T12:43:09.383Z,25.80
2018-02-07T12:46:14.982Z,24.47
2018-02-07T12:49:21.243Z,23.93
2018-02-07T12:52:26.682Z,25.00
2018-02-07T12:55:32.477Z,24.20
2018-02-07T12:58:38.715Z,25.83
2018-02-07T13:01:45.143Z,25.50
2018-02-07T13:04:50.947Z,26.03
2018-02-07T13:07:56.586Z,24.07
2018-02-07T13:11:01.680Z,26.20
2018-02-07T13:14:06.642Z,24.03
2018-02-07T13:17:11.734Z,26.63
2018-02-07T13:20:17.219Z,25.20
2018-02-07T13:23:22.430Z,24.60
2018-02-07T13:26:28.163Z,24.60
2018-02-07T13:29:34.215Z,23.70
2018-02-07T13:32:40.270Z,24.63
2018-02-07T13:35:46.170Z,23.90
2018-02-07T13:38:52.095Z,23.40
2018-02-07T13:41:56.970Z,24.10
2018-02-07T13:45:02.478Z,23.27
2018-02-07T13:48:07.548Z,23.07
2018-02-07T13:51:13.236Z,22.03
2018-02-07T13:54:18.999Z,22.27
2018-02-07T13:57:24.634Z,24.27
2018-02-07T14:00:30.207Z,23.90
2018-02-07T14:03:35.963Z,23.60
2018-02-07T14:06:41.654Z,24.30
2018-02-07T14:09:47.929Z,24.03
2018-02-07T14:12:53.763Z,24.30
2018-02-07T14:15:59.142Z,23.40
2018-02-07T14:19:04.521Z,24.27
2018-02-07T14:22:09.790Z,24.30
2018-02-07T14:25:15.302Z,25.43
2018-02-07T14:28:21.406Z,24.00
2018-02-07T14:31:26.515Z,24.03
2018-02-07T14:34:31.297Z,24.30
2018-02-07T14:37:36.370Z,24.43
2018-02-07T14:40:41.530Z,23.80
2018-02-07T14:43:48.048Z,25.20
2018-02-07T14:46:53.370Z,24.27
2018-02-07T14:49:59.770Z,23.50
2018-02-07T14:53:06.111Z,25.00
2018-02-07T14:56:11.478Z,23.33
2018-02-07T14:59:16.442Z,24.07
2018-02-07T15:02:21.806Z,24.80
2018-02-07T15:05:26.918Z,23.53
2018-02-07T15:08:32.261Z,23.30
2018-02-07T15:11:38.118Z,24.07
2018-02-07T15:14:44.471Z,25.63
2018-02-07T15:17:49.819Z,24.83
2018-02-07T15:20:55.647Z,25.40
2018-02-07T15:24:00.606Z,25.17
2018-02-07T15:27:05.890Z,23.63
2018-02-07T15:30:11.566Z,25.40
2018-02-07T15:33:17.326Z,24.00
2018-02-07T15:36:22.214Z,23.73
2018-02-07T15:39:28.567Z,24.60
2018-02-07T15:42:33.663Z,25.80
2018-02-07T15:45:39.151Z,23.97
2018-02-07T15:48:44.568Z,24.83
2018-02-07T15:51:49.517Z,25.40
2018-02-07T15:54:54.863Z,25.33
2018-02-07T15:58:00.578Z,25.80
2018-02-07T16:01:05.546Z,24.63
2018-02-07T16:04:11.718Z,26.40
2018-02-07T16:07:16.722Z,23.20
2018-02-07T16:10:21.834Z,27.13
2018-02-07T16:13:27.853Z,24.67
2018-02-07T16:16:34.237Z,25.37
2018-02-07T16:19:39.743Z,25.90
2018-02-07T16:22:45.746Z,26.90
2018-02-07T16:25:51.806Z,26.20
2018-02-07T16:28:57.375Z,26.73
2018-02-07T16:32:02.811Z,27.23
2018-02-07T16:35:07.786Z,26.43
2018-02-07T16:38:13.415Z,27.10
2018-02-07T16:41:19.826Z,24.27
2018-02-07T16:44:25.588Z,26.90
2018-02-07T16:47:31.402Z,26.37
2018-02-07T16:50:36.350Z,26.33
2018-02-07T16:53:42.638Z,26.47
2018-02-07T16:56:48.006Z,27.10
2018-02-07T16:59:53.822Z,28.90
2018-02-07T17:02:59.517Z,27.97
2018-02-07T17:06:04.991Z,27.83
2018-02-07T17:09:10.578Z,29.63
2018-02-07T17:12:15.350Z,28.27
2018-02-07T17:15:22.106Z,29.10
2018-02-07T17:18:27.604Z,27.40
2018-02-07T17:21:32.510Z,27.30
2018-02-07T17:24:37.631Z,27.87
2018-02-07T17:27:43.789Z,26.40
2018-02-07T17:30:48.700Z,25.90
2018-02-07T17:33:54.094Z,28.50
2018-02-07T17:37:01.432Z,27.70
2018-02-07T17:40:06.755Z,30.33
2018-02-07T17:43:12.542Z,28.27
2018-02-07T17:46:17.726Z,28.03
2018-02-07T17:49:22.420Z,26.43
2018-02-07T17:52:27.875Z,26.23
2018-02-07T17:55:33.070Z,27.20
2018-02-07T17:58:39.179Z,26.43
2018-02-07T18:01:44.545Z,27.57
2018-02-07T18:04:50.050Z,26.30
2018-02-07T18:07:55.384Z,26.43
2018-02-07T18:11:01.097Z,27.50
2018-02-07T18:14:06.582Z,27.20
2018-02-07T18:17:12.666Z,27.10
2018-02-07T18:20:18.259Z,25.70
2018-02-07T18:23:23.042Z,26.67
2018-02-07T18:26:27.922Z,26.67
2018-02-07T18:29:32.847Z,25.63
2018-02-07T18:32:38.322Z,27.00
2018-02-07T18:35:44.482Z,27.13
2018-02-07T18:38:50.606Z,28.00
2018-02-07T18:41:56.402Z,25.20
2018-02-07T18:45:02.446Z,28.70
2018-02-07T18:48:08.503Z,28.27
2018-02-07T18:51:14.551Z,26.53
2018-02-07T18:54:19.695Z,26.80
2018-02-07T18:57:25.223Z,27.53
2018-02-07T19:00:31.035Z,27.37
2018-02-07T19:03:36.290Z,27.40
2018-02-07T19:06:41.370Z,26.63
2018-02-07T19:09:46.927Z,27.60
2018-02-07T19:12:53.094Z,26.93
2018-02-07T19:15:58.551Z,27.13
2018-02-07T19:19:03.930Z,26.67
2018-02-07T19:22:10.027Z,25.57
2018-02-07T19:25:15.398Z,25.50
2018-02-07T19:28:20.555Z,27.10
2018-02-07T19:31:25.954Z,26.80
2018-02-07T19:34:32.031Z,26.90
2018-02-07T19:37:39.171Z,25.03
2018-02-07T19:40:44.627Z,26.90
2018-02-07T19:43:49.959Z,27.00
2018-02-07T19:46:57.114Z,25.90
2018-02-07T19:50:02.337Z,28.40
2018-02-07T19:53:07.750Z,26.23
2018-02-07T19:56:12.967Z,27.40
2018-02-07T19:59:18.588Z,24.83
2018-02-07T20:02:23.645Z,27.57
2018-02-07T20:05:30.932Z,27.47
2018-02-07T20:08:37.605Z,27.80
2018-02-07T20:11:43.348Z,26.60
2018-02-07T20:14:51.148Z,28.53
2018-02-07T20:17:55.705Z,25.97
2018-02-07T20:21:01.400Z,26.40
2018-02-07T20:24:10.066Z,25.57
2018-02-07T20:27:15.563Z,28.33
2018-02-07T20:30:20.527Z,28.00
2018-02-07T20:33:26.169Z,26.23
2018-02-07T20:36:31.884Z,27.57
2018-02-07T20:39:37.376Z,29.40
2018-02-07T20:42:43.128Z,28.43
2018-02-07T20:45:49.155Z,28.00
2018-02-07T20:48:54.784Z,27.57
2018-02-07T20:52:00.391Z,28.97
2018-02-07T20:55:06.982Z,29.10
2018-02-07T20:58:12.498Z,27.00
2018-02-07T21:01:17.626Z,26.93
2018-02-07T21:04:22.726Z,28.13
2018-02-07T21:07:27.552Z,29.70
2018-02-07T21:10:33.119Z,28.57
2018-02-07T21:13:38.959Z,28.23
2018-02-07T21:16:43.995Z,28.30
2018-02-07T21:19:49.706Z,30.13
2018-02-07T21:22:54.926Z,28.33
2018-02-07T21:26:00.242Z,28.77
2018-02-07T21:29:05.926Z,28.10
2018-02-07T21:32:11.083Z,30.50
2018-02-07T21:35:17.427Z,30.17
2018-02-07T21:38:23.239Z,28.27
2018-02-07T21:41:29.050Z,31.97
2018-02-07T21:44:34.698Z,30.20
2018-02-07T21:47:40.541Z,29.03
2018-02-07T21:50:46.929Z,28.93
2018-02-07T21:53:52.611Z,30.30
2018-02-07T21:56:58.171Z,30.40
2018-02-07T22:00:03.338Z,31.93
2018-02-07T22:03:08.674Z,30.27
2018-02-07T22:06:14.142Z,30.40
2018-02-07T22:09:19.007Z,30.03
2018-02-07T22:12:23.966Z,31.50
2018-02-07T22:15:29.230Z,30.83
2018-02-07T22:18:34.526Z,31.10
2018-02-07T22:21:39.310Z,31.80
2018-02-07T22:24:45.818Z,30.10
2018-02-07T22:27:51.265Z,29.60
2018-02-07T22:30:56.111Z,30.00
2018-02-07T22:34:01.283Z,31.23
2018-02-07T22:37:06.503Z,30.43
2018-02-07T22:40:12.022Z,30.00
2018-02-07T22:43:17.734Z,30.70
2018-02-07T22:46:24.422Z,30.47
2018-02-07T22:49:30.162Z,31.30
2018-02-07T22:52:35.594Z,30.60
2018-02-07T22:55:41.102Z,32.83
2018-02-07T22:58:46.300Z,30.60
2018-02-07T23:01:52.823Z,30.63
2018-02-07T23:04:57.831Z,33.00
2018-02-07T23:08:02.682Z,30.17
2018-02-07T23:11:07.795Z,30.70
2018-02-07T23:14:12.650Z,31.27
2018-02-07T23:17:18.110Z,31.87
2018-02-07T23:20:23.425Z,33.73
2018-02-07T23:23:28.793Z,31.53
2018-02-07T23:26:33.835Z,33.03
2018-02-07T23:29:38.698Z,31.00
2018-02-07T23:32:44.274Z,32.30
2018-02-07T23:35:50.210Z,33.43
2018-02-07T23:38:55.038Z,32.77
2018-02-07T23:41:59.817Z,30.70
2018-02-07T23:45:05.338Z,35.43
2018-02-07T23:48:11.286Z,33.23
2018-02-07T23:51:16.445Z,34.97
2018-02-07T23:54:21.519Z,31.77
2018-02-07T23:57:27.347Z,32.67
